sensor_id;sensor_type;location;lat;lon;timestamp;P1;durP1;ratioP1;P2;durP2;ratioP2
50531;SDS011;36483;37.396;-122.212;2023-04-03T00:00:44;9.85;;;1.20;;
50531;SDS011;36483;37.396;-122.212;2023-04-03T00:03:10;2.97;;;0.90;;
50531;SDS011;36483;37.396;-122.212;2023-04-03T00:05:36;4.05;;;0.93;;
50531;SDS011;36483;37.396;-122.212;2023-04-03T00:08:02;4.05;;;0.98;;
50531;SDS011;36483;37.396;-122.212;2023-04-03T00:10:29;2.90;;;0.82;;
50531;SDS011;36483;37.396;-122.212;2023-04-03T00:12:56;4.38;;;1.27;;
50531;SDS011;36483;37.396;-122.212;2023-04-03T00:15:22;3.65;;;1.00;;
50531;SDS011;36483;37.396;-122.212;2023-04-03T00:17:48;3.15;;;0.90;;
50531;SDS011;36483;37.396;-122.212;2023-04-03T00:20:14;4.43;;;1.02;;
50531;SDS011;36483;37.396;-122.212;2023-04-03T00:22:40;2.75;;;0.80;;
50531;SDS011;36483;37.396;-122.212;2023-04-03T00:25:07;3.58;;;0.82;;
50531;SDS011;36483;37.396;-122.212;2023-04-03T00:27:35;4.18;;;0.82;;
50531;SDS011;36483;37.396;-122.212;2023-04-03T00:30:02;4.32;;;0.75;;
50531;SDS011;36483;37.396;-122.212;2023-04-03T00:32:29;2.67;;;0.90;;
50531;SDS011;36483;37.396;-122.212;2023-04-03T00:34:55;4.18;;;0.80;;
50531;SDS011;36483;37.396;-122.212;2023-04-03T00:37:21;3.47;;;0.80;;
50531;SDS011;36483;37.396;-122.212;2023-04-03T00:39:47;2.90;;;0.80;;
50531;SDS011;36483;37.396;-122.212;2023-04-03T00:42:13;2.97;;;0.90;;
50531;SDS011;36483;37.396;-122.212;2023-04-03T00:47:07;3.25;;;0.88;;
50531;SDS011;36483;37.396;-122.212;2023-04-03T00:49:35;5.55;;;0.90;;
50531;SDS011;36483;37.396;-122.212;2023-04-03T00:52:01;4.22;;;0.93;;
50531;SDS011;36483;37.396;-122.212;2023-04-03T00:54:27;4.00;;;1.05;;
50531;SDS011;36483;37.396;-122.212;2023-04-03T00:56:54;3.15;;;1.00;;
50531;SDS011;36483;37.396;-122.212;2023-04-03T00:59:24;4.45;;;1.10;;
50531;SDS011;36483;37.396;-122.212;2023-04-03T01:01:52;3.65;;;0.90;;
50531;SDS011;36483;37.396;-122.212;2023-04-03T01:04:39;5.25;;;0.93;;
50531;SDS011;36483;37.396;-122.212;2023-04-03T01:07:08;3.40;;;1.00;;
50531;SDS011;36483;37.396;-122.212;2023-04-03T01:09:43;3.90;;;0.90;;
50531;SDS011;36483;37.396;-122.212;2023-04-03T01:14:48;2.28;;;0.60;;
50531;SDS011;36483;37.396;-122.212;2023-04-03T01:22:34;1.77;;;0.68;;
50531;SDS011;36483;37.396;-122.212;2023-04-03T01:25:07;2.63;;;0.80;;
50531;SDS011;36483;37.396;-122.212;2023-04-03T01:27:34;3.35;;;0.80;;
50531;SDS011;36483;37.396;-122.212;2023-04-03T01:30:00;2.75;;;0.70;;
50531;SDS011;36483;37.396;-122.212;2023-04-03T01:32:26;3.30;;;0.90;;
50531;SDS011;36483;37.396;-122.212;2023-04-03T01:34:52;4.65;;;0.95;;
50531;SDS011;36483;37.396;-122.212;2023-04-03T01:37:19;3.53;;;0.95;;
50531;SDS011;36483;37.396;-122.212;2023-04-03T01:39:45;3.92;;;1.25;;
50531;SDS011;36483;37.396;-122.212;2023-04-03T01:42:11;5.15;;;1.33;;
50531;SDS011;36483;37.396;-122.212;2023-04-03T01:44:37;4.60;;;1.02;;
50531;SDS011;36483;37.396;-122.212;2023-04-03T01:47:05;3.28;;;1.20;;
50531;SDS011;36483;37.396;-122.212;2023-04-03T01:49:32;3.30;;;1.08;;
50531;SDS011;36483;37.396;-122.212;2023-04-03T01:51:58;4.05;;;1.00;;
50531;SDS011;36483;37.396;-122.212;2023-04-03T01:54:24;3.25;;;0.90;;
50531;SDS011;36483;37.396;-122.212;2023-04-03T01:56:51;2.58;;;0.77;;
50531;SDS011;36483;37.396;-122.212;2023-04-03T01:59:17;1.70;;;0.80;;
50531;SDS011;36483;37.396;-122.212;2023-04-03T02:01:44;4.90;;;1.00;;
50531;SDS011;36483;37.396;-122.212;2023-04-03T02:04:11;2.97;;;1.10;;
50531;SDS011;36483;37.396;-122.212;2023-04-03T02:06:37;7.82;;;1.15;;
50531;SDS011;36483;37.396;-122.212;2023-04-03T02:09:04;2.60;;;0.90;;
50531;SDS011;36483;37.396;-122.212;2023-04-03T02:11:30;4.03;;;1.00;;
50531;SDS011;36483;37.396;-122.212;2023-04-03T02:13:56;3.78;;;1.15;;
50531;SDS011;36483;37.396;-122.212;2023-04-03T02:16:22;6.78;;;1.67;;
50531;SDS011;36483;37.396;-122.212;2023-04-03T02:18:49;2.78;;;0.85;;
50531;SDS011;36483;37.396;-122.212;2023-04-03T02:21:15;3.88;;;0.90;;
50531;SDS011;36483;37.396;-122.212;2023-04-03T02:23:41;3.95;;;1.48;;
50531;SDS011;36483;37.396;-122.212;2023-04-03T02:26:12;4.57;;;1.20;;
50531;SDS011;36483;37.396;-122.212;2023-04-03T02:28:39;3.00;;;1.20;;
50531;SDS011;36483;37.396;-122.212;2023-04-03T02:31:06;2.50;;;0.95;;
50531;SDS011;36483;37.396;-122.212;2023-04-03T02:33:33;5.63;;;1.27;;
50531;SDS011;36483;37.396;-122.212;2023-04-03T02:36:02;3.85;;;1.33;;
50531;SDS011;36483;37.396;-122.212;2023-04-03T02:38:32;4.65;;;1.50;;
50531;SDS011;36483;37.396;-122.212;2023-04-03T02:41:06;3.80;;;1.38;;
50531;SDS011;36483;37.396;-122.212;2023-04-03T02:43:34;3.33;;;1.10;;
50531;SDS011;36483;37.396;-122.212;2023-04-03T02:46:00;2.65;;;1.10;;
50531;SDS011;36483;37.396;-122.212;2023-04-03T02:48:26;3.83;;;1.25;;
50531;SDS011;36483;37.396;-122.212;2023-04-03T02:50:52;4.93;;;1.25;;
50531;SDS011;36483;37.396;-122.212;2023-04-03T02:53:19;3.35;;;1.20;;
50531;SDS011;36483;37.396;-122.212;2023-04-03T02:55:45;2.45;;;1.00;;
50531;SDS011;36483;37.396;-122.212;2023-04-03T02:58:11;3.15;;;1.00;;
50531;SDS011;36483;37.396;-122.212;2023-04-03T03:00:38;3.35;;;1.20;;
50531;SDS011;36483;37.396;-122.212;2023-04-03T03:03:04;3.53;;;0.95;;
50531;SDS011;36483;37.396;-122.212;2023-04-03T03:05:31;4.60;;;1.40;;
50531;SDS011;36483;37.396;-122.212;2023-04-03T03:07:57;3.13;;;0.98;;
50531;SDS011;36483;37.396;-122.212;2023-04-03T03:10:24;2.58;;;0.95;;
50531;SDS011;36483;37.396;-122.212;2023-04-03T03:12:50;3.13;;;0.82;;
50531;SDS011;36483;37.396;-122.212;2023-04-03T03:15:16;2.70;;;0.80;;
50531;SDS011;36483;37.396;-122.212;2023-04-03T03:17:44;2.97;;;1.00;;
50531;SDS011;36483;37.396;-122.212;2023-04-03T03:20:11;3.20;;;0.80;;
50531;SDS011;36483;37.396;-122.212;2023-04-03T03:22:39;3.20;;;0.90;;
50531;SDS011;36483;37.396;-122.212;2023-04-03T03:25:05;2.83;;;0.90;;
50531;SDS011;36483;37.396;-122.212;2023-04-03T03:27:32;3.00;;;0.90;;
50531;SDS011;36483;37.396;-122.212;2023-04-03T03:29:58;4.07;;;1.00;;
50531;SDS011;36483;37.396;-122.212;2023-04-03T03:32:24;3.03;;;0.90;;
50531;SDS011;36483;37.396;-122.212;2023-04-03T03:34:50;5.30;;;1.10;;
50531;SDS011;36483;37.396;-122.212;2023-04-03T03:37:16;2.83;;;0.85;;
50531;SDS011;36483;37.396;-122.212;2023-04-03T03:39:42;4.20;;;0.90;;
50531;SDS011;36483;37.396;-122.212;2023-04-03T03:42:09;4.35;;;1.05;;
50531;SDS011;36483;37.396;-122.212;2023-04-03T03:44:35;2.85;;;0.80;;
50531;SDS011;36483;37.396;-122.212;2023-04-03T03:47:01;2.35;;;0.80;;
50531;SDS011;36483;37.396;-122.212;2023-04-03T03:49:28;3.38;;;0.80;;
50531;SDS011;36483;37.396;-122.212;2023-04-03T03:51:54;3.58;;;0.85;;
50531;SDS011;36483;37.396;-122.212;2023-04-03T03:54:20;2.65;;;0.70;;
50531;SDS011;36483;37.396;-122.212;2023-04-03T03:56:47;2.42;;;0.80;;
50531;SDS011;36483;37.396;-122.212;2023-04-03T03:59:13;4.10;;;1.05;;
50531;SDS011;36483;37.396;-122.212;2023-04-03T04:01:39;2.60;;;0.68;;
50531;SDS011;36483;37.396;-122.212;2023-04-03T04:04:05;4.22;;;1.10;;
50531;SDS011;36483;37.396;-122.212;2023-04-03T04:06:31;2.17;;;0.75;;
50531;SDS011;36483;37.396;-122.212;2023-04-03T04:08:57;2.10;;;0.82;;
50531;SDS011;36483;37.396;-122.212;2023-04-03T04:11:24;2.40;;;0.90;;
50531;SDS011;36483;37.396;-122.212;2023-04-03T04:13:50;2.60;;;0.80;;
50531;SDS011;36483;37.396;-122.212;2023-04-03T04:16:16;1.92;;;0.80;;
50531;SDS011;36483;37.396;-122.212;2023-04-03T04:18:42;2.25;;;0.80;;
50531;SDS011;36483;37.396;-122.212;2023-04-03T04:21:08;2.10;;;0.90;;
50531;SDS011;36483;37.396;-122.212;2023-04-03T04:23:35;2.28;;;0.60;;
50531;SDS011;36483;37.396;-122.212;2023-04-03T04:26:01;3.35;;;1.05;;
50531;SDS011;36483;37.396;-122.212;2023-04-03T04:28:27;2.55;;;0.80;;
50531;SDS011;36483;37.396;-122.212;2023-04-03T04:30:53;1.30;;;0.60;;
50531;SDS011;36483;37.396;-122.212;2023-04-03T04:33:19;2.35;;;0.70;;
50531;SDS011;36483;37.396;-122.212;2023-04-03T04:35:47;3.75;;;0.65;;
50531;SDS011;36483;37.396;-122.212;2023-04-03T04:38:13;1.75;;;0.80;;
50531;SDS011;36483;37.396;-122.212;2023-04-03T04:40:39;2.15;;;0.80;;
50531;SDS011;36483;37.396;-122.212;2023-04-03T04:43:06;2.80;;;0.80;;
50531;SDS011;36483;37.396;-122.212;2023-04-03T04:45:32;3.45;;;0.70;;
50531;SDS011;36483;37.396;-122.212;2023-04-03T04:47:58;1.55;;;0.63;;
50531;SDS011;36483;37.396;-122.212;2023-04-03T04:50:25;1.58;;;0.80;;
50531;SDS011;36483;37.396;-122.212;2023-04-03T04:52:51;3.00;;;0.70;;
50531;SDS011;36483;37.396;-122.212;2023-04-03T04:55:17;1.38;;;0.70;;
50531;SDS011;36483;37.396;-122.212;2023-04-03T04:57:43;2.35;;;0.80;;
50531;SDS011;36483;37.396;-122.212;2023-04-03T05:00:10;1.90;;;0.63;;
50531;SDS011;36483;37.396;-122.212;2023-04-03T05:02:36;4.45;;;1.10;;
50531;SDS011;36483;37.396;-122.212;2023-04-03T05:05:02;2.55;;;0.77;;
50531;SDS011;36483;37.396;-122.212;2023-04-03T05:07:29;2.25;;;0.70;;
50531;SDS011;36483;37.396;-122.212;2023-04-03T05:09:55;3.25;;;0.88;;
50531;SDS011;36483;37.396;-122.212;2023-04-03T05:12:21;2.85;;;0.80;;
50531;SDS011;36483;37.396;-122.212;2023-04-03T05:14:47;3.05;;;0.70;;
50531;SDS011;36483;37.396;-122.212;2023-04-03T05:17:13;4.20;;;0.88;;
50531;SDS011;36483;37.396;-122.212;2023-04-03T05:19:39;3.63;;;0.80;;
50531;SDS011;36483;37.396;-122.212;2023-04-03T05:22:05;1.65;;;0.77;;
50531;SDS011;36483;37.396;-122.212;2023-04-03T05:24:32;3.15;;;0.80;;
50531;SDS011;36483;37.396;-122.212;2023-04-03T05:26:58;5.15;;;0.90;;
50531;SDS011;36483;37.396;-122.212;2023-04-03T05:29:24;4.57;;;1.00;;
50531;SDS011;36483;37.396;-122.212;2023-04-03T05:31:51;2.63;;;0.90;;
50531;SDS011;36483;37.396;-122.212;2023-04-03T05:34:17;4.35;;;1.10;;
50531;SDS011;36483;37.396;-122.212;2023-04-03T05:36:43;4.00;;;1.10;;
50531;SDS011;36483;37.396;-122.212;2023-04-03T05:39:10;3.13;;;0.90;;
50531;SDS011;36483;37.396;-122.212;2023-04-03T05:41:36;5.00;;;1.20;;
50531;SDS011;36483;37.396;-122.212;2023-04-03T05:44:02;3.03;;;1.45;;
50531;SDS011;36483;37.396;-122.212;2023-04-03T05:46:28;5.20;;;1.55;;
50531;SDS011;36483;37.396;-122.212;2023-04-03T05:48:55;6.47;;;2.00;;
50531;SDS011;36483;37.396;-122.212;2023-04-03T05:51:25;5.72;;;1.42;;
50531;SDS011;36483;37.396;-122.212;2023-04-03T05:54:00;2.38;;;1.02;;
50531;SDS011;36483;37.396;-122.212;2023-04-03T05:56:32;2.65;;;0.80;;
50531;SDS011;36483;37.396;-122.212;2023-04-03T05:58:58;2.55;;;0.95;;
50531;SDS011;36483;37.396;-122.212;2023-04-03T06:01:24;4.10;;;1.60;;
50531;SDS011;36483;37.396;-122.212;2023-04-03T06:04:11;4.97;;;1.20;;
50531;SDS011;36483;37.396;-122.212;2023-04-03T06:09:13;7.53;;;1.40;;
50531;SDS011;36483;37.396;-122.212;2023-04-03T06:11:41;5.22;;;1.42;;
50531;SDS011;36483;37.396;-122.212;2023-04-03T06:14:07;4.75;;;0.98;;
50531;SDS011;36483;37.396;-122.212;2023-04-03T06:16:34;3.88;;;1.15;;
50531;SDS011;36483;37.396;-122.212;2023-04-03T06:19:00;5.60;;;1.10;;
50531;SDS011;36483;37.396;-122.212;2023-04-03T06:21:27;9.55;;;1.48;;
50531;SDS011;36483;37.396;-122.212;2023-04-03T06:23:53;5.10;;;1.33;;
50531;SDS011;36483;37.396;-122.212;2023-04-03T06:26:19;7.80;;;2.00;;
50531;SDS011;36483;37.396;-122.212;2023-04-03T06:28:46;5.47;;;1.40;;
50531;SDS011;36483;37.396;-122.212;2023-04-03T06:31:12;6.40;;;1.27;;
50531;SDS011;36483;37.396;-122.212;2023-04-03T06:33:38;3.72;;;1.17;;
50531;SDS011;36483;37.396;-122.212;2023-04-03T06:36:05;7.45;;;2.53;;
50531;SDS011;36483;37.396;-122.212;2023-04-03T06:38:34;9.23;;;2.28;;
50531;SDS011;36483;37.396;-122.212;2023-04-03T06:41:01;5.97;;;1.20;;
50531;SDS011;36483;37.396;-122.212;2023-04-03T06:43:27;8.10;;;1.75;;
50531;SDS011;36483;37.396;-122.212;2023-04-03T06:45:53;8.68;;;2.22;;
50531;SDS011;36483;37.396;-122.212;2023-04-03T06:48:19;4.60;;;1.40;;
50531;SDS011;36483;37.396;-122.212;2023-04-03T06:50:46;3.60;;;1.40;;
50531;SDS011;36483;37.396;-122.212;2023-04-03T06:53:12;5.85;;;1.27;;
50531;SDS011;36483;37.396;-122.212;2023-04-03T06:55:38;5.72;;;1.38;;
50531;SDS011;36483;37.396;-122.212;2023-04-03T06:58:04;7.50;;;1.67;;
50531;SDS011;36483;37.396;-122.212;2023-04-03T07:00:31;4.93;;;1.45;;
50531;SDS011;36483;37.396;-122.212;2023-04-03T07:02:57;6.10;;;1.50;;
50531;SDS011;36483;37.396;-122.212;2023-04-03T07:05:23;6.00;;;2.00;;
50531;SDS011;36483;37.396;-122.212;2023-04-03T07:07:50;6.30;;;1.83;;
50531;SDS011;36483;37.396;-122.212;2023-04-03T07:10:16;8.27;;;2.22;;
50531;SDS011;36483;37.396;-122.212;2023-04-03T07:12:43;6.80;;;1.60;;
50531;SDS011;36483;37.396;-122.212;2023-04-03T07:15:09;6.35;;;1.50;;
50531;SDS011;36483;37.396;-122.212;2023-04-03T07:17:38;6.43;;;1.80;;
50531;SDS011;36483;37.396;-122.212;2023-04-03T07:20:04;4.72;;;1.30;;
50531;SDS011;36483;37.396;-122.212;2023-04-03T07:22:31;6.78;;;1.30;;
50531;SDS011;36483;37.396;-122.212;2023-04-03T07:24:57;6.25;;;1.35;;
50531;SDS011;36483;37.396;-122.212;2023-04-03T07:27:24;5.30;;;1.85;;
50531;SDS011;36483;37.396;-122.212;2023-04-03T07:29:51;5.25;;;1.77;;
50531;SDS011;36483;37.396;-122.212;2023-04-03T07:32:17;6.38;;;1.88;;
50531;SDS011;36483;37.396;-122.212;2023-04-03T07:34:43;7.18;;;1.88;;
50531;SDS011;36483;37.396;-122.212;2023-04-03T07:37:10;6.75;;;1.80;;
50531;SDS011;36483;37.396;-122.212;2023-04-03T07:39:36;5.30;;;2.10;;
50531;SDS011;36483;37.396;-122.212;2023-04-03T07:42:03;6.10;;;2.20;;
50531;SDS011;36483;37.396;-122.212;2023-04-03T07:44:29;5.90;;;2.60;;
50531;SDS011;36483;37.396;-122.212;2023-04-03T07:46:56;4.97;;;2.35;;
50531;SDS011;36483;37.396;-122.212;2023-04-03T07:49:22;7.82;;;2.72;;
50531;SDS011;36483;37.396;-122.212;2023-04-03T07:51:49;6.90;;;2.50;;
50531;SDS011;36483;37.396;-122.212;2023-04-03T07:54:16;5.85;;;2.03;;
50531;SDS011;36483;37.396;-122.212;2023-04-03T07:56:42;6.20;;;1.60;;
50531;SDS011;36483;37.396;-122.212;2023-04-03T07:59:09;5.53;;;1.27;;
50531;SDS011;36483;37.396;-122.212;2023-04-03T08:01:36;6.50;;;1.95;;
50531;SDS011;36483;37.396;-122.212;2023-04-03T08:04:02;6.70;;;1.17;;
50531;SDS011;36483;37.396;-122.212;2023-04-03T08:06:30;11.02;;;3.25;;
50531;SDS011;36483;37.396;-122.212;2023-04-03T08:08:59;6.32;;;2.78;;
50531;SDS011;36483;37.396;-122.212;2023-04-03T08:11:25;9.40;;;1.73;;
50531;SDS011;36483;37.396;-122.212;2023-04-03T08:13:52;6.45;;;1.33;;
50531;SDS011;36483;37.396;-122.212;2023-04-03T08:16:20;4.40;;;1.50;;
50531;SDS011;36483;37.396;-122.212;2023-04-03T08:18:48;4.85;;;1.38;;
50531;SDS011;36483;37.396;-122.212;2023-04-03T08:21:14;6.45;;;1.48;;
50531;SDS011;36483;37.396;-122.212;2023-04-03T08:23:41;5.55;;;1.70;;
50531;SDS011;36483;37.396;-122.212;2023-04-03T08:26:11;7.30;;;1.40;;
50531;SDS011;36483;37.396;-122.212;2023-04-03T08:28:39;8.68;;;1.75;;
50531;SDS011;36483;37.396;-122.212;2023-04-03T08:31:07;4.53;;;1.40;;
50531;SDS011;36483;37.396;-122.212;2023-04-03T08:33:36;5.38;;;1.42;;
50531;SDS011;36483;37.396;-122.212;2023-04-03T08:36:03;5.22;;;1.40;;
50531;SDS011;36483;37.396;-122.212;2023-04-03T08:38:30;6.05;;;1.52;;
50531;SDS011;36483;37.396;-122.212;2023-04-03T08:41:39;10.82;;;1.23;;
50531;SDS011;36483;37.396;-122.212;2023-04-03T08:47:20;5.72;;;1.77;;
50531;SDS011;36483;37.396;-122.212;2023-04-03T08:50:13;5.35;;;1.45;;
50531;SDS011;36483;37.396;-122.212;2023-04-03T08:52:47;6.43;;;1.65;;
50531;SDS011;36483;37.396;-122.212;2023-04-03T08:57:59;7.45;;;1.60;;
50531;SDS011;36483;37.396;-122.212;2023-04-03T09:00:29;6.32;;;1.90;;
50531;SDS011;36483;37.396;-122.212;2023-04-03T09:03:16;7.72;;;1.75;;
50531;SDS011;36483;37.396;-122.212;2023-04-03T09:05:48;4.45;;;1.55;;
50531;SDS011;36483;37.396;-122.212;2023-04-03T09:08:43;9.60;;;1.90;;
50531;SDS011;36483;37.396;-122.212;2023-04-03T09:21:58;7.72;;;1.58;;
50531;SDS011;36483;37.396;-122.212;2023-04-03T09:24:38;9.60;;;2.10;;
50531;SDS011;36483;37.396;-122.212;2023-04-03T09:27:04;10.52;;;1.80;;
50531;SDS011;36483;37.396;-122.212;2023-04-03T09:29:34;5.50;;;1.65;;
50531;SDS011;36483;37.396;-122.212;2023-04-03T09:32:11;5.72;;;1.90;;
50531;SDS011;36483;37.396;-122.212;2023-04-03T09:34:56;10.05;;;2.03;;
50531;SDS011;36483;37.396;-122.212;2023-04-03T09:37:35;7.88;;;1.77;;
50531;SDS011;36483;37.396;-122.212;2023-04-03T09:40:04;6.88;;;1.80;;
50531;SDS011;36483;37.396;-122.212;2023-04-03T09:42:32;8.32;;;1.83;;
50531;SDS011;36483;37.396;-122.212;2023-04-03T09:45:03;7.85;;;1.52;;
50531;SDS011;36483;37.396;-122.212;2023-04-03T09:47:34;10.85;;;1.73;;
50531;SDS011;36483;37.396;-122.212;2023-04-03T09:52:43;10.45;;;1.50;;
50531;SDS011;36483;37.396;-122.212;2023-04-03T09:55:14;5.75;;;1.58;;
50531;SDS011;36483;37.396;-122.212;2023-04-03T09:57:42;6.60;;;1.80;;
50531;SDS011;36483;37.396;-122.212;2023-04-03T10:02:59;4.93;;;1.35;;
50531;SDS011;36483;37.396;-122.212;2023-04-03T10:05:33;8.30;;;1.60;;
50531;SDS011;36483;37.396;-122.212;2023-04-03T10:10:39;6.45;;;1.50;;
50531;SDS011;36483;37.396;-122.212;2023-04-03T10:13:19;6.85;;;1.50;;
50531;SDS011;36483;37.396;-122.212;2023-04-03T10:21:03;6.13;;;1.55;;
50531;SDS011;36483;37.396;-122.212;2023-04-03T10:23:45;10.10;;;1.90;;
50531;SDS011;36483;37.396;-122.212;2023-04-03T10:26:29;8.35;;;1.67;;
50531;SDS011;36483;37.396;-122.212;2023-04-03T10:34:40;7.78;;;1.75;;
50531;SDS011;36483;37.396;-122.212;2023-04-03T10:40:34;7.50;;;1.30;;
50531;SDS011;36483;37.396;-122.212;2023-04-03T10:43:33;7.07;;;1.35;;
50531;SDS011;36483;37.396;-122.212;2023-04-03T10:49:01;3.13;;;1.30;;
50531;SDS011;36483;37.396;-122.212;2023-04-03T10:51:47;5.28;;;1.40;;
50531;SDS011;36483;37.396;-122.212;2023-04-03T10:56:52;6.20;;;1.30;;
50531;SDS011;36483;37.396;-122.212;2023-04-03T10:59:32;5.80;;;1.63;;
50531;SDS011;36483;37.396;-122.212;2023-04-03T11:02:06;6.97;;;1.30;;
50531;SDS011;36483;37.396;-122.212;2023-04-03T11:04:37;6.97;;;1.40;;
50531;SDS011;36483;37.396;-122.212;2023-04-03T11:07:18;7.15;;;1.48;;
50531;SDS011;36483;37.396;-122.212;2023-04-03T11:09:50;6.20;;;1.33;;
50531;SDS011;36483;37.396;-122.212;2023-04-03T11:17:43;8.80;;;1.70;;
50531;SDS011;36483;37.396;-122.212;2023-04-03T11:20:23;8.07;;;1.45;;
50531;SDS011;36483;37.396;-122.212;2023-04-03T11:25:45;8.13;;;1.20;;
50531;SDS011;36483;37.396;-122.212;2023-04-03T11:28:15;8.95;;;1.60;;
50531;SDS011;36483;37.396;-122.212;2023-04-03T11:30:44;7.70;;;1.38;;
50531;SDS011;36483;37.396;-122.212;2023-04-03T11:36:24;6.43;;;1.60;;
50531;SDS011;36483;37.396;-122.212;2023-04-03T11:38:53;6.57;;;1.70;;
50531;SDS011;36483;37.396;-122.212;2023-04-03T11:41:29;6.53;;;1.55;;
50531;SDS011;36483;37.396;-122.212;2023-04-03T11:43:58;6.93;;;1.70;;
50531;SDS011;36483;37.396;-122.212;2023-04-03T12:05:52;10.60;;;1.60;;
50531;SDS011;36483;37.396;-122.212;2023-04-03T12:13:40;7.88;;;1.73;;
50531;SDS011;36483;37.396;-122.212;2023-04-03T12:29:54;3.90;;;1.10;;
50531;SDS011;36483;37.396;-122.212;2023-04-03T12:46:07;5.10;;;1.13;;
50531;SDS011;36483;37.396;-122.212;2023-04-03T12:48:53;5.90;;;1.10;;
50531;SDS011;36483;37.396;-122.212;2023-04-03T12:54:02;5.38;;;1.20;;
50531;SDS011;36483;37.396;-122.212;2023-04-03T12:59:16;3.83;;;1.20;;
50531;SDS011;36483;37.396;-122.212;2023-04-03T13:01:59;4.93;;;1.25;;
50531;SDS011;36483;37.396;-122.212;2023-04-03T13:04:26;5.32;;;1.23;;
50531;SDS011;36483;37.396;-122.212;2023-04-03T13:06:53;5.43;;;1.35;;
50531;SDS011;36483;37.396;-122.212;2023-04-03T13:09:27;6.43;;;1.25;;
50531;SDS011;36483;37.396;-122.212;2023-04-03T13:12:07;3.83;;;1.23;;
50531;SDS011;36483;37.396;-122.212;2023-04-03T13:14:39;6.93;;;1.30;;
50531;SDS011;36483;37.396;-122.212;2023-04-03T13:19:39;5.30;;;1.10;;
50531;SDS011;36483;37.396;-122.212;2023-04-03T13:24:45;4.93;;;1.00;;
50531;SDS011;36483;37.396;-122.212;2023-04-03T13:27:12;3.95;;;1.20;;
50531;SDS011;36483;37.396;-122.212;2023-04-03T13:29:38;3.33;;;0.90;;
50531;SDS011;36483;37.396;-122.212;2023-04-03T13:32:05;3.33;;;1.15;;
50531;SDS011;36483;37.396;-122.212;2023-04-03T13:34:36;4.68;;;1.23;;
50531;SDS011;36483;37.396;-122.212;2023-04-03T13:37:04;4.90;;;1.17;;
50531;SDS011;36483;37.396;-122.212;2023-04-03T13:39:36;7.72;;;1.33;;
50531;SDS011;36483;37.396;-122.212;2023-04-03T13:42:20;4.55;;;0.95;;
50531;SDS011;36483;37.396;-122.212;2023-04-03T13:44:48;4.30;;;1.20;;
50531;SDS011;36483;37.396;-122.212;2023-04-03T13:47:20;2.83;;;1.02;;
50531;SDS011;36483;37.396;-122.212;2023-04-03T13:52:28;6.93;;;1.20;;
50531;SDS011;36483;37.396;-122.212;2023-04-03T13:54:59;4.50;;;1.13;;
50531;SDS011;36483;37.396;-122.212;2023-04-03T13:57:28;5.07;;;1.17;;
50531;SDS011;36483;37.396;-122.212;2023-04-03T13:59:54;4.32;;;1.10;;
50531;SDS011;36483;37.396;-122.212;2023-04-03T14:02:22;3.63;;;0.98;;
50531;SDS011;36483;37.396;-122.212;2023-04-03T14:04:57;4.18;;;1.20;;
50531;SDS011;36483;37.396;-122.212;2023-04-03T14:07:27;4.65;;;1.05;;
50531;SDS011;36483;37.396;-122.212;2023-04-03T14:09:54;3.67;;;1.08;;
50531;SDS011;36483;37.396;-122.212;2023-04-03T14:12:24;4.13;;;1.08;;
50531;SDS011;36483;37.396;-122.212;2023-04-03T14:15:02;3.47;;;0.95;;
50531;SDS011;36483;37.396;-122.212;2023-04-03T14:17:36;4.22;;;1.02;;
50531;SDS011;36483;37.396;-122.212;2023-04-03T14:20:03;4.55;;;1.20;;
50531;SDS011;36483;37.396;-122.212;2023-04-03T14:22:31;2.40;;;1.00;;
50531;SDS011;36483;37.396;-122.212;2023-04-03T14:25:00;3.53;;;0.90;;
50531;SDS011;36483;37.396;-122.212;2023-04-03T14:27:27;4.07;;;1.13;;
50531;SDS011;36483;37.396;-122.212;2023-04-03T14:29:57;3.28;;;0.90;;
50531;SDS011;36483;37.396;-122.212;2023-04-03T14:32:25;5.05;;;1.30;;
50531;SDS011;36483;37.396;-122.212;2023-04-03T14:34:51;4.32;;;0.90;;
50531;SDS011;36483;37.396;-122.212;2023-04-03T14:37:19;5.80;;;1.42;;
50531;SDS011;36483;37.396;-122.212;2023-04-03T14:39:47;3.53;;;0.90;;
50531;SDS011;36483;37.396;-122.212;2023-04-03T14:42:16;3.65;;;0.98;;
50531;SDS011;36483;37.396;-122.212;2023-04-03T14:44:44;3.90;;;1.00;;
50531;SDS011;36483;37.396;-122.212;2023-04-03T14:47:29;2.25;;;0.90;;
50531;SDS011;36483;37.396;-122.212;2023-04-03T14:49:56;3.15;;;0.70;;
50531;SDS011;36483;37.396;-122.212;2023-04-03T14:52:24;4.47;;;0.85;;
50531;SDS011;36483;37.396;-122.212;2023-04-03T14:54:52;3.45;;;0.80;;
50531;SDS011;36483;37.396;-122.212;2023-04-03T14:57:19;3.03;;;0.90;;
50531;SDS011;36483;37.396;-122.212;2023-04-03T14:59:49;4.63;;;0.90;;
50531;SDS011;36483;37.396;-122.212;2023-04-03T15:04:52;2.67;;;0.70;;
50531;SDS011;36483;37.396;-122.212;2023-04-03T15:07:19;5.10;;;0.90;;
50531;SDS011;36483;37.396;-122.212;2023-04-03T15:09:46;3.53;;;0.80;;
50531;SDS011;36483;37.396;-122.212;2023-04-03T15:12:12;3.63;;;0.80;;
50531;SDS011;36483;37.396;-122.212;2023-04-03T15:14:38;3.10;;;0.73;;
50531;SDS011;36483;37.396;-122.212;2023-04-03T15:17:05;2.67;;;0.90;;
50531;SDS011;36483;37.396;-122.212;2023-04-03T15:19:37;2.63;;;0.90;;
50531;SDS011;36483;37.396;-122.212;2023-04-03T15:22:05;1.45;;;0.60;;
50531;SDS011;36483;37.396;-122.212;2023-04-03T15:24:31;4.72;;;1.02;;
50531;SDS011;36483;37.396;-122.212;2023-04-03T15:26:57;1.85;;;0.90;;
50531;SDS011;36483;37.396;-122.212;2023-04-03T15:29:23;3.22;;;0.77;;
50531;SDS011;36483;37.396;-122.212;2023-04-03T15:31:49;2.72;;;0.90;;
50531;SDS011;36483;37.396;-122.212;2023-04-03T15:34:18;4.00;;;0.77;;
50531;SDS011;36483;37.396;-122.212;2023-04-03T15:36:46;2.58;;;0.70;;
50531;SDS011;36483;37.396;-122.212;2023-04-03T15:39:12;3.13;;;0.90;;
50531;SDS011;36483;37.396;-122.212;2023-04-03T15:41:39;2.70;;;0.73;;
50531;SDS011;36483;37.396;-122.212;2023-04-03T15:44:06;2.42;;;1.08;;
50531;SDS011;36483;37.396;-122.212;2023-04-03T15:46:32;5.53;;;0.98;;
50531;SDS011;36483;37.396;-122.212;2023-04-03T15:48:58;4.82;;;1.00;;
50531;SDS011;36483;37.396;-122.212;2023-04-03T15:51:24;2.17;;;0.75;;
50531;SDS011;36483;37.396;-122.212;2023-04-03T15:53:50;1.48;;;0.50;;
50531;SDS011;36483;37.396;-122.212;2023-04-03T15:56:17;5.10;;;0.90;;
50531;SDS011;36483;37.396;-122.212;2023-04-03T15:58:43;2.45;;;0.73;;
50531;SDS011;36483;37.396;-122.212;2023-04-03T16:01:09;3.90;;;0.80;;
50531;SDS011;36483;37.396;-122.212;2023-04-03T16:03:36;2.58;;;0.68;;
50531;SDS011;36483;37.396;-122.212;2023-04-03T16:06:04;3.22;;;0.95;;
50531;SDS011;36483;37.396;-122.212;2023-04-03T16:08:30;3.25;;;0.80;;
50531;SDS011;36483;37.396;-122.212;2023-04-03T16:10:56;2.30;;;0.85;;
50531;SDS011;36483;37.396;-122.212;2023-04-03T16:13:22;4.47;;;0.80;;
50531;SDS011;36483;37.396;-122.212;2023-04-03T16:15:48;3.10;;;0.70;;
50531;SDS011;36483;37.396;-122.212;2023-04-03T16:18:15;0.95;;;0.52;;
50531;SDS011;36483;37.396;-122.212;2023-04-03T16:20:43;1.83;;;0.77;;
50531;SDS011;36483;37.396;-122.212;2023-04-03T16:23:09;3.90;;;0.80;;
50531;SDS011;36483;37.396;-122.212;2023-04-03T16:25:36;2.65;;;0.60;;
50531;SDS011;36483;37.396;-122.212;2023-04-03T16:28:02;2.70;;;0.77;;
50531;SDS011;36483;37.396;-122.212;2023-04-03T16:30:29;2.88;;;0.90;;
50531;SDS011;36483;37.396;-122.212;2023-04-03T16:32:56;3.00;;;0.70;;